Luro, Sweden

4:51 AM CEST on August 01, 2014 (GMT +0200)
Orslosa, Kallstorp (IVSTRAGT16) Elev 198 ft | 58.51 °N, 12.92 °E | Change Station

Current weather conditions updated 1 minute ago

Partly Cloudy
Partly Cloudy
58.3 °F
Feels Like 58.3 °F
N
0.0
Wind Variable Wind from North
Gusts 0.0 mph

Today is forecast to be nearly the same temperature as yesterday. Showers ending by midday.

Today
High -- | Low -- °F
--% Chance of Precip.
Yesterday
High -- | Low -- °F
Precip. -- in
4:55 AM 9:30 PM
Waxing Crescent, 23% visible
Pressure 29.80 in
Visibility 6.2 miles
Clouds Few 3600 ft
Dew Point 57 °F
Humidity 95%
Rainfall 0.00 in
Snow Depth Not available.
UV 0.0 out of 12
Pollen Not available.
Air Quality Not available.
Flu Activity Not available.
METAR ESIB 010220Z AUTO 16006KT 9999NDV FEW036/// 14/13 Q1009

More Conditions Fewer Conditions

Pressure 29.80 in
Visibility 6.2 miles
Clouds Few 3600 ft
Dew Point 57 °F
Humidity 95%
Rainfall 0.00 in
Snow Depth Not available.
UV 0.0 out of 12
Pollen Not available.
Air Quality Not available.
Flu Activity Not available.
METAR ESIB 010220Z AUTO 16006KT 9999NDV FEW036/// 14/13 Q1009

More Conditions Fewer Conditions

10-Day Weather Forecast

Almanac

Astronomy

Aug. 01, 2014 Rise Set
Actual Time 4:55 AM CEST 9:30 PM CEST
Civil Twilight 3:59 AM CEST 10:25 PM CEST
Nautical Twilight 2:19 AM CEST 12:02 AM CEST
Astronomical Twilight Sun does not rise Sun does not rise
Moon 11:28 AM CEST 10:35 PM CEST
Length of Visible Light 18h 26m
Length of Day
16h 34m
Tomorrow will be 4m 31s shorter.
Waxing Crescent, 23% of the Moon is Illuminated
Jul 31
Waxing Crescent
Aug 3
First Quarter
Aug 10
Full
Aug 17
Last Quarter
Aug 25
New

Yesterday's Extremes

Country Highs Country Lows

Community

WunderPhotos

Upload Photos

1,739,503 photos uploaded!

Nearby

Snow Depth

Not available.

Earthquake Activity

City Distance Mag. Time & Date
No recent earthquake activity has been reported nearby.
Minimum magnitude displayed is 2.5.

Coastal Water Temperatures

Place Temperature
No Stations Reporting

Nearby Weather Stations

Station Location Temp. Dew Point Humidity Wind Precip. Elev Updated Type
Orslosa, Kallstorp, Lidkoping 58.3 °F 57 °F 95% North  at  0.0 mph 0.00 in / hr 198 ft 4:50 AM CEST Normal
Vinninga 55.6 °F 53 °F 91% SE  at  8.1 mph 0.00 in / hr 269 ft 4:50 AM CEST Rapid Fire

Show More Stations Show Fewer Stations